Time;durP1;ratioP1;P1;durP2;ratioP2;P2;SDS_P1;SDS_P2;PMS_P1;PMS_P2;Temp;Humidity;BMP_temperature;BMP_pressure;BME280_temperature;BME280_humidity;BME280_pressure;Samples;Min_cycle;Max_cycle;Signal;HPM_P1;HPM_P2
2021/03/19 00:00:03;;;;;;;1.70;1.20;;;;;10.10;101966.00;;;;5089315;28;20202;-79
2021/03/19 00:02:31;;;;;;;3.33;1.63;;;;;10.10;101964.00;;;;5081831;28;20191;-78
2021/03/19 00:04:59;;;;;;;1.95;1.27;;;;;10.10;101974.00;;;;5083850;28;20228;-79
2021/03/19 00:07:26;;;;;;;3.17;1.60;;;;;10.10;101985.00;;;;5081173;28;20301;-79
2021/03/19 00:09:53;;;;;;;2.25;1.48;;;;;10.10;101977.00;;;;5088629;28;20198;-78
2021/03/19 00:12:21;;;;;;;2.08;1.23;;;;;10.10;101980.00;;;;5086986;28;20197;-79
2021/03/19 00:14:47;;;;;;;1.95;1.27;;;;;10.10;101986.00;;;;5083656;28;20202;-79
2021/03/19 00:17:14;;;;;;;2.15;1.35;;;;;10.10;101976.00;;;;5082979;28;20194;-79
2021/03/19 00:19:42;;;;;;;2.47;1.58;;;;;10.00;101987.00;;;;5089349;28;20565;-78
2021/03/19 00:22:08;;;;;;;2.65;1.60;;;;;10.00;101993.00;;;;5087915;28;20182;-78
2021/03/19 00:24:35;;;;;;;3.78;1.65;;;;;10.00;101988.00;;;;5089516;28;20191;-79
2021/03/19 00:27:02;;;;;;;3.70;2.17;;;;;9.90;101989.00;;;;5086369;28;20214;-79
2021/03/19 00:29:28;;;;;;;1.85;1.30;;;;;9.90;101989.00;;;;5088175;28;20195;-79
2021/03/19 00:31:55;;;;;;;1.73;1.48;;;;;9.90;101990.00;;;;5088120;28;20206;-79
2021/03/19 00:34:22;;;;;;;1.98;1.52;;;;;9.80;101992.00;;;;5088041;28;20252;-79
2021/03/19 00:36:49;;;;;;;2.65;1.50;;;;;9.80;101992.00;;;;5080626;28;20195;-79
2021/03/19 00:39:16;;;;;;;5.35;1.60;;;;;9.70;101985.00;;;;5071022;28;20206;-79
2021/03/19 00:41:43;;;;;;;3.17;1.67;;;;;9.70;101992.00;;;;5083608;28;20194;-79
2021/03/19 00:44:10;;;;;;;2.17;1.40;;;;;9.60;101998.00;;;;5089626;28;20255;-79
2021/03/19 00:46:36;;;;;;;5.75;1.67;;;;;9.60;102003.00;;;;5082027;28;20633;-79
2021/03/19 00:49:03;;;;;;;2.90;1.50;;;;;9.60;102009.00;;;;5091063;28;20237;-79
2021/03/19 00:51:30;;;;;;;4.85;1.55;;;;;9.50;102003.00;;;;5090153;28;20210;-79
2021/03/19 00:53:57;;;;;;;2.50;1.40;;;;;9.50;102001.00;;;;5090124;28;20205;-79
2021/03/19 00:56:24;;;;;;;3.10;2.15;;;;;9.40;102012.00;;;;5074155;28;20191;-79
2021/03/19 00:58:51;;;;;;;2.28;1.60;;;;;9.40;102006.00;;;;5081861;28;20692;-79
2021/03/19 01:01:18;;;;;;;3.25;1.77;;;;;9.40;102011.00;;;;5076205;28;20205;-79
2021/03/19 01:03:45;;;;;;;2.78;1.35;;;;;9.30;102002.00;;;;5077153;28;20190;-79
2021/03/19 01:06:12;;;;;;;1.98;1.33;;;;;9.30;102000.00;;;;5074952;28;20241;-79
2021/03/19 01:08:38;;;;;;;1.90;1.38;;;;;9.20;102005.00;;;;5088010;28;20200;-79
2021/03/19 01:11:06;;;;;;;2.55;1.70;;;;;9.20;102012.00;;;;5087841;28;20199;-79
2021/03/19 01:13:33;;;;;;;3.30;1.40;;;;;9.20;102008.00;;;;5087287;28;20202;-79
2021/03/19 01:16:00;;;;;;;2.95;1.58;;;;;9.10;102002.00;;;;5074300;28;20202;-79
2021/03/19 01:18:30;;;;;;;2.00;1.35;;;;;9.10;102011.00;;;;5069688;28;20199;-79
2021/03/19 01:20:57;;;;;;;3.08;1.73;;;;;9.10;102005.00;;;;5071497;28;20230;-79
2021/03/19 01:23:23;;;;;;;2.17;1.60;;;;;9.00;102006.00;;;;5088115;28;20602;-79
2021/03/19 01:25:50;;;;;;;3.03;1.40;;;;;9.00;102002.00;;;;5087468;28;20241;-79
2021/03/19 01:28:18;;;;;;;1.52;1.40;;;;;8.90;102007.00;;;;5091832;28;20256;-78
2021/03/19 01:30:46;;;;;;;2.55;1.60;;;;;8.90;102017.00;;;;5092127;28;20198;-79
2021/03/19 01:33:13;;;;;;;2.20;1.33;;;;;8.90;102017.00;;;;5092920;28;20263;-78
2021/03/19 01:35:41;;;;;;;2.28;1.50;;;;;8.90;102026.00;;;;5084449;28;20575;-79
2021/03/19 01:38:08;;;;;;;1.80;1.27;;;;;8.80;102019.00;;;;5086809;28;20205;-79
2021/03/19 01:40:38;;;;;;;4.40;1.83;;;;;8.80;102030.00;;;;5093416;28;20202;-79
2021/03/19 01:43:07;;;;;;;2.60;1.63;;;;;8.70;102032.00;;;;5085895;28;20201;-79
2021/03/19 01:46:15;;;;;;;2.40;1.50;;;;;8.60;102031.00;;;;5091411;28;20191;-79
2021/03/19 01:49:20;;;;;;;1.85;1.38;;;;;8.60;102036.00;;;;5089925;28;20230;-79
2021/03/19 01:52:24;;;;;;;2.28;1.25;;;;;8.60;102046.00;;;;5087774;28;20201;-79
2021/03/19 01:55:28;;;;;;;2.33;1.50;;;;;8.50;102049.00;;;;5083784;28;20202;-79
2021/03/19 01:58:33;;;;;;;1.67;1.27;;;;;8.50;102047.00;;;;5089814;28;20202;-79
2021/03/19 02:01:37;;;;;;;2.65;1.33;;;;;8.40;102039.00;;;;5091468;28;20202;-78
2021/03/19 02:04:41;;;;;;;2.60;1.65;;;;;8.40;102043.00;;;;5091124;28;20319;-78
2021/03/19 02:07:45;;;;;;;3.08;1.48;;;;;8.30;102053.00;;;;5092151;28;20218;-78
2021/03/19 02:10:49;;;;;;;2.65;1.60;;;;;8.30;102055.00;;;;5091584;28;20194;-78
2021/03/19 02:13:53;;;;;;;2.47;1.50;;;;;8.30;102053.00;;;;5079794;28;20641;-79
2021/03/19 02:17:11;;;;;;;2.58;1.50;;;;;8.20;102058.00;;;;5076656;28;20191;-79
2021/03/19 02:20:15;;;;;;;1.52;1.30;;;;;8.20;102054.00;;;;4991895;28;20206;-79
2021/03/19 02:23:19;;;;;;;2.75;1.30;;;;;8.20;102064.00;;;;4992805;28;20194;-78
2021/03/19 02:26:23;;;;;;;1.90;1.33;;;;;8.20;102059.00;;;;5090443;28;20256;-78
2021/03/19 02:29:27;;;;;;;4.25;1.20;;;;;8.10;102069.00;;;;5078109;28;20194;-78
2021/03/19 02:32:06;;;;;;;2.60;1.10;;;;;8.20;102067.00;;;;5092877;28;20202;-79
2021/03/19 02:34:38;;;;;;;2.40;1.33;;;;;8.20;102066.00;;;;5091370;28;20289;-79
2021/03/19 02:37:05;;;;;;;2.90;1.00;;;;;8.20;102076.00;;;;5089996;28;20186;-79
2021/03/19 02:39:32;;;;;;;2.42;1.38;;;;;8.20;102074.00;;;;5093036;28;20297;-78
2021/03/19 02:42:00;;;;;;;3.25;1.33;;;;;8.20;102079.00;;;;5089365;28;20187;-78
2021/03/19 02:44:27;;;;;;;2.60;1.17;;;;;8.20;102071.00;;;;5087599;28;20202;-79
2021/03/19 02:46:55;;;;;;;2.75;1.73;;;;;8.20;102073.00;;;;5085082;28;21043;-79
2021/03/19 02:49:21;;;;;;;2.10;1.27;;;;;8.20;102076.00;;;;5073374;28;20230;-79
2021/03/19 02:51:48;;;;;;;1.90;1.27;;;;;8.20;102081.00;;;;5074208;28;20209;-79
2021/03/19 02:54:15;;;;;;;2.83;1.52;;;;;8.20;102071.00;;;;5075820;28;20203;-79
2021/03/19 02:56:42;;;;;;;3.85;1.20;;;;;8.10;102074.00;;;;5083340;28;20186;-79
2021/03/19 02:59:08;;;;;;;1.63;1.00;;;;;8.10;102075.00;;;;5072199;28;20191;-80
2021/03/19 03:01:35;;;;;;;3.53;1.60;;;;;8.10;102094.00;;;;5071949;28;20191;-79
2021/03/19 03:04:03;;;;;;;2.75;1.33;;;;;8.10;102087.00;;;;5074919;28;20590;-79
2021/03/19 03:06:38;;;;;;;3.03;1.65;;;;;8.00;102084.00;;;;5092039;28;20603;-79
2021/03/19 03:09:08;;;;;;;2.33;1.50;;;;;8.00;102094.00;;;;5092761;28;20194;-79
2021/03/19 03:11:37;;;;;;;2.08;1.10;;;;;8.10;102096.00;;;;5091760;28;20476;-79
2021/03/19 03:14:06;;;;;;;2.85;1.75;;;;;8.00;102089.00;;;;5074140;28;20739;-79
2021/03/19 03:16:40;;;;;;;3.45;1.65;;;;;8.00;102095.00;;;;5076099;28;20592;-79
2021/03/19 03:19:11;;;;;;;2.72;1.48;;;;;8.00;102094.00;;;;5071360;28;20203;-79
2021/03/19 03:21:38;;;;;;;3.10;1.63;;;;;8.00;102099.00;;;;5086302;28;20202;-79
2021/03/19 03:24:06;;;;;;;2.40;1.75;;;;;8.00;102102.00;;;;5075919;28;20205;-79
2021/03/19 03:26:33;;;;;;;4.38;1.58;;;;;8.00;102094.00;;;;5087488;28;20639;-79
2021/03/19 03:29:00;;;;;;;2.42;1.20;;;;;7.90;102094.00;;;;5091403;28;20584;-79
2021/03/19 03:31:27;;;;;;;4.13;1.77;;;;;7.90;102096.00;;;;5091627;28;20198;-79
2021/03/19 03:33:54;;;;;;;4.10;1.70;;;;;7.90;102098.00;;;;5090750;28;20528;-79
2021/03/19 03:36:22;;;;;;;4.28;1.55;;;;;7.90;102105.00;;;;5088978;28;20194;-79
2021/03/19 03:38:49;;;;;;;5.70;2.10;;;;;7.90;102111.00;;;;5090748;28;20703;-79
2021/03/19 03:41:18;;;;;;;1.30;1.10;;;;;7.90;102111.00;;;;5080860;28;20191;-79
2021/03/19 03:43:46;;;;;;;6.18;1.33;;;;;7.90;102122.00;;;;5084243;28;20191;-79
2021/03/19 03:46:15;;;;;;;3.65;1.30;;;;;7.80;102118.00;;;;5082916;28;20201;-79
2021/03/19 03:48:42;;;;;;;2.75;1.40;;;;;7.80;102120.00;;;;5089272;28;20283;-79
2021/03/19 03:51:11;;;;;;;5.05;1.98;;;;;7.80;102125.00;;;;5090775;28;20198;-79
2021/03/19 03:53:40;;;;;;;3.40;1.60;;;;;7.80;102121.00;;;;5089942;28;20206;-79
2021/03/19 03:56:08;;;;;;;2.35;1.52;;;;;7.80;102127.00;;;;5088177;28;20233;-79
2021/03/19 03:58:35;;;;;;;3.35;1.60;;;;;7.80;102134.00;;;;5088920;28;20648;-79
2021/03/19 04:01:05;;;;;;;5.13;2.30;;;;;7.80;102137.00;;;;5090386;28;20198;-79
2021/03/19 04:03:32;;;;;;;6.13;1.52;;;;;7.80;102130.00;;;;5090638;28;20789;-79
2021/03/19 04:05:59;;;;;;;3.88;1.60;;;;;7.70;102137.00;;;;5083657;28;20549;-79
2021/03/19 04:08:28;;;;;;;2.67;1.42;;;;;7.70;102146.00;;;;5090252;28;20225;-79
2021/03/19 04:10:57;;;;;;;2.08;1.38;;;;;7.70;102149.00;;;;5087402;28;20198;-79
2021/03/19 04:13:27;;;;;;;3.42;1.92;;;;;7.70;102149.00;;;;5080653;28;20206;-79
2021/03/19 04:15:55;;;;;;;5.57;1.55;;;;;7.70;102157.00;;;;5082256;28;20309;-79
2021/03/19 04:18:23;;;;;;;3.70;1.50;;;;;7.70;102162.00;;;;5088804;28;20206;-79
2021/03/19 04:20:52;;;;;;;3.00;1.52;;;;;7.60;102164.00;;;;5090838;28;20236;-79
2021/03/19 04:23:19;;;;;;;3.88;1.48;;;;;7.60;102163.00;;;;5084609;28;20201;-79
2021/03/19 04:25:46;;;;;;;3.03;1.75;;;;;7.60;102168.00;;;;5089564;28;20187;-79
2021/03/19 04:28:18;;;;;;;2.67;1.40;;;;;7.60;102170.00;;;;5082657;28;20707;-79
2021/03/19 04:30:46;;;;;;;2.90;1.83;;;;;7.60;102178.00;;;;5087737;28;20202;-79
2021/03/19 04:33:16;;;;;;;2.55;1.25;;;;;7.60;102175.00;;;;5092526;28;20699;-79
2021/03/19 04:35:43;;;;;;;4.38;1.90;;;;;7.60;102182.00;;;;5076719;28;20680;-79
2021/03/19 04:38:14;;;;;;;3.20;1.55;;;;;7.50;102181.00;;;;5085310;28;20248;-79
2021/03/19 04:40:43;;;;;;;2.03;1.00;;;;;7.50;102178.00;;;;5090639;28;20243;-79
2021/03/19 04:43:10;;;;;;;2.50;1.13;;;;;7.50;102189.00;;;;5083576;28;20195;-79
2021/03/19 04:45:38;;;;;;;3.15;1.50;;;;;7.50;102185.00;;;;5088908;28;20209;-79
2021/03/19 04:48:06;;;;;;;5.82;1.88;;;;;7.50;102186.00;;;;5084249;28;20691;-79
2021/03/19 04:50:33;;;;;;;3.08;1.75;;;;;7.50;102187.00;;;;5085503;28;20205;-79
2021/03/19 04:53:01;;;;;;;2.30;1.30;;;;;7.50;102184.00;;;;5077973;28;20202;-79
2021/03/19 04:55:28;;;;;;;2.42;1.48;;;;;7.50;102188.00;;;;5087979;28;20552;-79
2021/03/19 04:57:54;;;;;;;2.33;1.30;;;;;7.50;102186.00;;;;5088960;28;20202;-79
2021/03/19 05:00:23;;;;;;;1.23;1.10;;;;;7.50;102186.00;;;;5071553;28;20627;-79
2021/03/19 05:02:51;;;;;;;2.00;1.25;;;;;7.50;102189.00;;;;5092599;28;20225;-79
2021/03/19 05:05:22;;;;;;;2.13;1.30;;;;;7.50;102197.00;;;;5076945;28;20221;-79
2021/03/19 05:07:50;;;;;;;4.72;1.13;;;;;7.50;102192.00;;;;5074033;28;20306;-79
2021/03/19 05:10:19;;;;;;;3.00;1.25;;;;;7.40;102194.00;;;;5081485;28;20266;-79
2021/03/19 05:12:46;;;;;;;2.40;1.13;;;;;7.50;102199.00;;;;5082758;28;20198;-79
2021/03/19 05:15:13;;;;;;;2.33;1.33;;;;;7.40;102201.00;;;;5089605;28;20210;-79
2021/03/19 05:17:40;;;;;;;6.40;1.77;;;;;7.50;102206.00;;;;5090345;28;20228;-79
2021/03/19 05:20:12;;;;;;;2.95;1.48;;;;;7.40;102212.00;;;;5095459;28;20198;-78
2021/03/19 05:22:39;;;;;;;3.63;1.52;;;;;7.40;102217.00;;;;5094138;28;20194;-79
2021/03/19 05:25:10;;;;;;;2.65;1.50;;;;;7.40;102213.00;;;;5093883;28;20202;-78
2021/03/19 05:27:37;;;;;;;2.20;1.40;;;;;7.40;102227.00;;;;5086408;28;20352;-79
2021/03/19 05:30:05;;;;;;;3.55;1.30;;;;;7.40;102231.00;;;;5080630;28;20202;-79
2021/03/19 05:32:31;;;;;;;2.03;1.30;;;;;7.40;102234.00;;;;5078694;28;20191;-79
2021/03/19 05:34:58;;;;;;;3.58;1.13;;;;;7.40;102230.00;;;;5080857;28;20216;-79
2021/03/19 05:37:26;;;;;;;5.75;1.77;;;;;7.40;102242.00;;;;5077372;28;20672;-79
2021/03/19 05:39:53;;;;;;;3.88;1.40;;;;;7.40;102242.00;;;;5091252;28;20205;-79
2021/03/19 05:42:25;;;;;;;5.13;1.40;;;;;7.40;102242.00;;;;5087271;28;20194;-79
2021/03/19 05:45:00;;;;;;;3.13;1.60;;;;;7.30;102238.00;;;;5080237;28;20665;-79
2021/03/19 05:47:27;;;;;;;2.55;1.58;;;;;7.40;102243.00;;;;5076182;28;20215;-79
2021/03/19 05:49:58;;;;;;;3.53;1.50;;;;;7.40;102251.00;;;;5079525;28;20200;-79
2021/03/19 05:52:32;;;;;;;2.97;1.40;;;;;7.30;102253.00;;;;5073838;28;21123;-79
2021/03/19 05:54:59;;;;;;;3.90;1.92;;;;;7.40;102252.00;;;;5085366;28;20574;-79
2021/03/19 05:57:29;;;;;;;3.83;1.27;;;;;7.40;102254.00;;;;5085177;28;20201;-79
2021/03/19 05:59:58;;;;;;;3.00;1.33;;;;;7.40;102259.00;;;;5075696;28;20228;-79
2021/03/19 06:02:28;;;;;;;2.80;1.40;;;;;7.30;102267.00;;;;5074025;28;20287;-79
2021/03/19 06:05:07;;;;;;;2.60;1.40;;;;;7.30;102260.00;;;;5072568;28;20207;-83
2021/03/19 06:07:48;;;;;;;4.78;2.05;;;;;7.30;102262.00;;;;5082537;28;20249;-80
2021/03/19 06:10:36;;;;;;;4.85;1.73;;;;;7.30;102267.00;;;;5089649;28;20981;-79
2021/03/19 06:13:25;;;;;;;1.90;1.40;;;;;7.30;102264.00;;;;5087367;28;20209;-80
2021/03/19 06:15:55;;;;;;;3.72;1.60;;;;;7.40;102273.00;;;;5085781;28;20636;-81
2021/03/19 06:18:28;;;;;;;3.50;2.08;;;;;7.40;102271.00;;;;5071590;28;20783;-81
2021/03/19 06:21:02;;;;;;;2.58;1.65;;;;;7.40;102271.00;;;;5070410;28;20199;-81
2021/03/19 06:23:30;;;;;;;3.53;1.55;;;;;7.40;102279.00;;;;5070367;28;20238;-81
2021/03/19 06:26:04;;;;;;;3.30;2.00;;;;;7.40;102277.00;;;;5090038;28;20195;-81
2021/03/19 06:28:34;;;;;;;5.93;2.08;;;;;7.50;102282.00;;;;5090665;28;20238;-81
2021/03/19 06:31:23;;;;;;;2.72;1.67;;;;;7.40;102270.00;;;;5090402;28;20198;-80
2021/03/19 06:34:06;;;;;;;2.85;1.42;;;;;7.50;102278.00;;;;5089282;28;20221;-79
2021/03/19 06:36:33;;;;;;;5.03;1.60;;;;;7.60;102283.00;;;;5090143;28;20224;-80
2021/03/19 06:39:14;;;;;;;3.92;1.50;;;;;7.60;102291.00;;;;5087341;28;20712;-80
2021/03/19 06:41:41;;;;;;;3.78;1.65;;;;;7.70;102285.00;;;;5087254;28;20747;-79
2021/03/19 06:44:18;;;;;;;4.10;1.80;;;;;7.70;102294.00;;;;5074719;28;20672;-79
2021/03/19 06:46:49;;;;;;;2.97;1.45;;;;;7.70;102295.00;;;;5088430;28;20226;-79
2021/03/19 06:49:17;;;;;;;2.13;1.40;;;;;7.80;102300.00;;;;5089051;28;20222;-79
2021/03/19 06:51:47;;;;;;;3.90;1.90;;;;;7.80;102308.00;;;;5091983;28;20198;-78
2021/03/19 06:54:17;;;;;;;4.65;1.90;;;;;7.90;102307.00;;;;5089571;28;20767;-78
2021/03/19 06:57:04;;;;;;;3.50;1.80;;;;;7.90;102311.00;;;;5088634;28;20319;-78
2021/03/19 06:59:40;;;;;;;2.95;1.60;;;;;7.90;102317.00;;;;5072491;28;20209;-78
2021/03/19 07:02:38;;;;;;;3.58;1.80;;;;;8.00;102323.00;;;;5084109;28;20217;-78
2021/03/19 07:05:17;;;;;;;2.60;1.45;;;;;8.10;102322.00;;;;5072131;28;20206;-78
2021/03/19 07:07:56;;;;;;;7.18;1.75;;;;;8.10;102321.00;;;;5079139;28;20295;-79
2021/03/19 07:10:44;;;;;;;2.95;1.52;;;;;8.20;102315.00;;;;5089413;28;20198;-80
2021/03/19 07:13:27;;;;;;;2.75;1.35;;;;;8.20;102330.00;;;;5090073;28;20229;-78
2021/03/19 07:16:03;;;;;;;2.17;1.40;;;;;8.30;102326.00;;;;5088912;28;20202;-78
2021/03/19 07:18:41;;;;;;;3.63;1.75;;;;;8.30;102328.00;;;;5089306;28;20206;-78
2021/03/19 07:21:28;;;;;;;3.55;1.67;;;;;8.40;102336.00;;;;5089808;28;20209;-78
2021/03/19 07:24:08;;;;;;;4.07;1.55;;;;;8.50;102337.00;;;;5087293;28;20462;-78
2021/03/19 07:26:40;;;;;;;4.75;1.77;;;;;8.60;102336.00;;;;5089170;28;20202;-78
2021/03/19 07:29:40;;;;;;;3.55;1.83;;;;;8.50;102341.00;;;;5090407;28;20199;-77
2021/03/19 07:32:28;;;;;;;3.67;1.50;;;;;8.60;102341.00;;;;5087083;28;20258;-78
2021/03/19 07:35:03;;;;;;;3.55;1.40;;;;;8.70;102339.00;;;;5088751;28;20704;-78
2021/03/19 07:37:57;;;;;;;2.03;1.65;;;;;8.70;102339.00;;;;5090285;28;20236;-78
2021/03/19 07:40:33;;;;;;;6.00;1.85;;;;;8.80;102339.00;;;;5088175;28;20605;-78
2021/03/19 07:43:20;;;;;;;2.53;1.25;;;;;8.90;102355.00;;;;5088687;28;20202;-77
2021/03/19 07:45:58;;;;;;;2.25;1.17;;;;;8.90;102351.00;;;;5089407;28;20202;-78
2021/03/19 07:48:42;;;;;;;3.22;1.70;;;;;9.00;102359.00;;;;5085775;28;20302;-80
2021/03/19 07:51:24;;;;;;;4.43;2.20;;;;;9.00;102363.00;;;;5083242;28;20190;-81
2021/03/19 07:54:07;;;;;;;3.80;1.67;;;;;9.10;102370.00;;;;5078712;28;20229;-76
2021/03/19 07:56:54;;;;;;;8.10;2.00;;;;;9.20;102367.00;;;;5078274;28;20729;-75
2021/03/19 07:59:35;;;;;;;2.92;1.70;;;;;9.20;102369.00;;;;5076891;28;20221;-75
2021/03/19 08:02:27;;;;;;;2.92;1.88;;;;;9.30;102362.00;;;;5078243;28;20691;-76
2021/03/19 08:05:05;;;;;;;4.82;1.55;;;;;9.40;102371.00;;;;5078312;28;20551;-75
2021/03/19 08:07:38;;;;;;;4.00;1.42;;;;;9.50;102372.00;;;;5078395;28;20210;-76
2021/03/19 08:10:18;;;;;;;2.63;1.77;;;;;9.50;102387.00;;;;5078559;28;20672;-76
2021/03/19 08:12:51;;;;;;;2.78;1.25;;;;;9.60;102377.00;;;;5078633;28;20190;-76
2021/03/19 08:15:30;;;;;;;1.80;1.10;;;;;9.60;102391.00;;;;5077131;28;20187;-76
2021/03/19 08:18:04;;;;;;;4.00;1.20;;;;;9.70;102386.00;;;;5078100;28;20194;-76
2021/03/19 08:20:43;;;;;;;3.47;1.80;;;;;9.70;102390.00;;;;5075533;28;20210;-76
2021/03/19 08:23:21;;;;;;;2.35;1.17;;;;;9.80;102384.00;;;;5076434;28;20201;-76
2021/03/19 08:25:51;;;;;;;2.70;1.42;;;;;9.90;102390.00;;;;5077535;28;20202;-76
2021/03/19 08:28:26;;;;;;;3.00;1.40;;;;;9.90;102399.00;;;;5076753;28;20225;-76
2021/03/19 08:31:01;;;;;;;3.25;1.20;;;;;10.00;102402.00;;;;5078439;28;20235;-76
2021/03/19 08:33:47;;;;;;;2.50;1.10;;;;;10.10;102399.00;;;;5084565;28;20214;-77
2021/03/19 08:36:23;;;;;;;2.65;1.17;;;;;10.20;102400.00;;;;5074760;28;20618;-76
2021/03/19 08:38:53;;;;;;;4.22;1.38;;;;;10.30;102404.00;;;;5080009;28;20198;-76
2021/03/19 08:41:25;;;;;;;3.85;1.33;;;;;10.30;102404.00;;;;5086559;28;20205;-76
2021/03/19 08:43:55;;;;;;;2.08;1.17;;;;;10.40;102406.00;;;;5081160;28;20319;-76
2021/03/19 08:46:36;;;;;;;3.58;2.08;;;;;10.40;102410.00;;;;5087280;28;20190;-75
2021/03/19 08:49:06;;;;;;;3.80;1.15;;;;;10.50;102402.00;;;;5083650;28;20233;-75
2021/03/19 08:51:40;;;;;;;2.25;1.17;;;;;10.60;102406.00;;;;5086557;28;20205;-76
2021/03/19 08:54:22;;;;;;;4.68;1.60;;;;;10.60;102417.00;;;;5068267;28;20331;-75
2021/03/19 08:56:51;;;;;;;2.63;1.15;;;;;10.70;102422.00;;;;5071012;28;20199;-76
2021/03/19 08:59:49;;;;;;;2.75;1.40;;;;;10.80;102427.00;;;;5069522;28;20191;-76
2021/03/19 09:02:46;;;;;;;2.33;1.27;;;;;10.80;102431.00;;;;5080149;28;20608;-77
2021/03/19 09:05:32;;;;;;;4.70;1.20;;;;;10.90;102431.00;;;;5067943;28;20202;-76
2021/03/19 09:08:26;;;;;;;3.65;1.45;;;;;11.00;102435.00;;;;5083680;28;20253;-77
2021/03/19 09:11:04;;;;;;;3.78;1.40;;;;;11.10;102441.00;;;;5034484;28;20195;-75
2021/03/19 09:13:31;;;;;;;2.58;1.23;;;;;11.30;102440.00;;;;5088059;28;20206;-75
2021/03/19 09:16:18;;;;;;;2.67;1.60;;;;;11.30;102433.00;;;;5073632;28;20195;-75
2021/03/19 09:18:48;;;;;;;4.07;1.38;;;;;11.40;102445.00;;;;5085030;28;20558;-76
2021/03/19 09:21:30;;;;;;;2.63;1.58;;;;;11.50;102438.00;;;;5076251;28;20191;-76
2021/03/19 09:24:06;;;;;;;3.33;1.35;;;;;11.60;102443.00;;;;5077536;28;20218;-76
2021/03/19 09:26:45;;;;;;;3.95;1.60;;;;;11.70;102434.00;;;;5072360;28;20639;-76
2021/03/19 09:29:35;;;;;;;4.30;1.83;;;;;11.70;102446.00;;;;5073717;28;20202;-76
2021/03/19 09:32:37;;;;;;;2.95;1.30;;;;;11.80;102457.00;;;;5073152;28;20203;-75
2021/03/19 09:35:15;;;;;;;3.67;1.60;;;;;12.00;102459.00;;;;5075394;28;20218;-76
2021/03/19 09:37:54;;;;;;;3.08;1.70;;;;;12.00;102452.00;;;;5071974;28;20194;-75
2021/03/19 09:40:49;;;;;;;4.93;1.52;;;;;12.10;102460.00;;;;5081853;28;20195;-76
2021/03/19 09:43:42;;;;;;;3.20;1.63;;;;;12.10;102460.00;;;;5087085;28;20205;-76
2021/03/19 09:46:22;;;;;;;1.23;1.10;;;;;12.20;102470.00;;;;5065736;28;20295;-76
2021/03/19 09:49:02;;;;;;;5.00;1.85;;;;;12.30;102472.00;;;;5092267;28;20324;-76
2021/03/19 09:51:35;;;;;;;2.88;1.77;;;;;12.40;102487.00;;;;5079836;28;20281;-76
2021/03/19 09:54:35;;;;;;;1.70;1.27;;;;;12.40;102490.00;;;;5093082;28;20243;-76
2021/03/19 09:57:11;;;;;;;2.20;1.60;;;;;12.50;102481.00;;;;5018689;28;20251;-76
2021/03/19 09:59:40;;;;;;;2.63;1.25;;;;;12.60;102483.00;;;;5079910;28;20247;-76
2021/03/19 10:02:27;;;;;;;3.40;1.27;;;;;12.60;102483.00;;;;5092514;28;20195;-76
2021/03/19 10:05:05;;;;;;;2.10;1.13;;;;;12.70;102482.00;;;;5086931;28;20248;-76
2021/03/19 10:07:33;;;;;;;1.73;1.10;;;;;12.80;102479.00;;;;5080783;28;20692;-76
2021/03/19 10:10:00;;;;;;;3.60;1.05;;;;;12.90;102494.00;;;;5078242;28;20199;-76
2021/03/19 10:12:32;;;;;;;2.22;1.50;;;;;12.90;102487.00;;;;5091869;28;20217;-76
2021/03/19 10:15:14;;;;;;;2.35;1.23;;;;;13.00;102488.00;;;;5078458;28;20243;-76
2021/03/19 10:17:50;;;;;;;2.45;1.38;;;;;13.10;102501.00;;;;5090730;28;20210;-76
2021/03/19 10:20:22;;;;;;;1.77;1.08;;;;;13.20;102483.00;;;;5077002;28;20735;-76
2021/03/19 10:22:50;;;;;;;1.58;1.35;;;;;13.30;102481.00;;;;5091592;28;20280;-77
2021/03/19 10:25:27;;;;;;;2.33;1.25;;;;;13.40;102488.00;;;;5081571;28;20241;-77
2021/03/19 10:27:57;;;;;;;1.88;1.42;;;;;13.50;102477.00;;;;5080516;28;20303;-77
2021/03/19 10:30:31;;;;;;;3.05;1.30;;;;;13.60;102483.00;;;;5087064;28;20194;-76
2021/03/19 10:33:04;;;;;;;4.63;1.60;;;;;13.60;102491.00;;;;5081789;28;20198;-76
2021/03/19 10:35:35;;;;;;;3.53;1.75;;;;;13.70;102500.00;;;;5085105;28;20206;-79
2021/03/19 10:38:11;;;;;;;1.95;1.55;;;;;13.70;102497.00;;;;5073487;28;20207;-77
2021/03/19 10:40:39;;;;;;;1.80;1.00;;;;;13.80;102487.00;;;;5069880;28;20199;-77
2021/03/19 10:43:17;;;;;;;2.50;1.25;;;;;13.80;102487.00;;;;5085397;28;20206;-79
2021/03/19 10:45:50;;;;;;;2.88;1.25;;;;;13.80;102486.00;;;;5081062;28;20572;-79
2021/03/19 10:48:29;;;;;;;1.52;1.23;;;;;13.90;102490.00;;;;5090546;28;20707;-79
2021/03/19 10:51:06;;;;;;;1.67;1.20;;;;;13.90;102486.00;;;;5071609;28;20194;-79
2021/03/19 10:53:56;;;;;;;1.30;1.00;;;;;13.90;102508.00;;;;5072651;28;20203;-79
2021/03/19 10:56:24;;;;;;;2.70;0.80;;;;;14.10;102503.00;;;;5073252;28;20202;-79
2021/03/19 10:58:54;;;;;;;2.28;1.27;;;;;14.20;102504.00;;;;5092420;28;20194;-79
2021/03/19 11:01:36;;;;;;;1.73;0.95;;;;;14.10;102498.00;;;;5093047;28;20664;-79
2021/03/19 11:04:24;;;;;;;2.20;1.15;;;;;14.30;102503.00;;;;5090521;28;20202;-79
2021/03/19 11:06:53;;;;;;;5.65;1.52;;;;;14.40;102492.00;;;;5075840;28;20233;-78
2021/03/19 11:09:22;;;;;;;1.67;1.27;;;;;14.50;102494.00;;;;5093168;28;20667;-79
2021/03/19 11:11:52;;;;;;;1.63;1.00;;;;;14.50;102490.00;;;;5085743;28;20264;-78
2021/03/19 11:14:22;;;;;;;2.47;1.27;;;;;14.60;102479.00;;;;5077544;28;20199;-78
2021/03/19 11:16:51;;;;;;;1.35;1.13;;;;;14.60;102475.00;;;;5079550;28;20209;-79
2021/03/19 11:19:20;;;;;;;1.67;0.77;;;;;14.70;102482.00;;;;5090760;28;20232;-77
2021/03/19 11:21:56;;;;;;;1.63;1.00;;;;;14.80;102491.00;;;;5085691;28;20541;-77
2021/03/19 11:24:26;;;;;;;2.28;1.08;;;;;14.90;102493.00;;;;5082347;28;20578;-78
2021/03/19 11:27:19;;;;;;;1.88;1.17;;;;;14.80;102487.00;;;;5083325;28;20198;-77
2021/03/19 11:29:46;;;;;;;1.63;0.77;;;;;15.00;102495.00;;;;5071786;28;20203;-78
2021/03/19 11:32:32;;;;;;;1.52;0.88;;;;;15.00;102496.00;;;;5072562;28;20672;-77
2021/03/19 11:35:14;;;;;;;2.85;0.90;;;;;15.00;102511.00;;;;5078690;28;20215;-77
2021/03/19 11:37:45;;;;;;;2.42;1.33;;;;;15.10;102503.00;;;;5072014;28;20732;-79
2021/03/19 11:40:30;;;;;;;3.90;1.10;;;;;15.10;102505.00;;;;5086113;28;20660;-80
2021/03/19 11:42:59;;;;;;;1.95;1.20;;;;;15.20;102507.00;;;;5089434;28;20251;-79
2021/03/19 11:45:27;;;;;;;2.55;0.82;;;;;15.20;102512.00;;;;5089960;28;20228;-78
2021/03/19 11:48:13;;;;;;;2.47;1.00;;;;;15.20;102511.00;;;;5088957;28;20988;-77
2021/03/19 11:50:41;;;;;;;1.40;1.20;;;;;15.30;102511.00;;;;5089731;28;20206;-79
2021/03/19 11:53:12;;;;;;;1.30;0.93;;;;;15.30;102518.00;;;;5090077;28;20221;-76
2021/03/19 11:55:43;;;;;;;1.88;0.95;;;;;15.40;102511.00;;;;5091233;28;20198;-78
2021/03/19 11:58:10;;;;;;;1.27;0.70;;;;;15.40;102516.00;;;;5089152;28;20198;-76
2021/03/19 12:00:39;;;;;;;3.05;1.05;;;;;15.50;102525.00;;;;5089497;28;20251;-77
2021/03/19 12:03:11;;;;;;;1.20;1.00;;;;;15.50;102515.00;;;;5089796;28;20198;-77
2021/03/19 12:05:38;;;;;;;1.80;1.15;;;;;15.50;102518.00;;;;5089698;28;20565;-76
2021/03/19 12:08:05;;;;;;;1.55;0.90;;;;;15.50;102525.00;;;;5089535;28;20267;-76
2021/03/19 12:10:34;;;;;;;1.45;0.80;;;;;15.50;102520.00;;;;5089627;28;20202;-76
2021/03/19 12:13:04;;;;;;;1.85;0.93;;;;;15.50;102517.00;;;;5090035;28;20687;-76
2021/03/19 12:15:32;;;;;;;2.28;1.00;;;;;15.50;102521.00;;;;5089831;28;20232;-76
2021/03/19 12:17:59;;;;;;;2.13;1.20;;;;;15.50;102517.00;;;;5089160;28;20664;-76
2021/03/19 12:20:27;;;;;;;1.30;0.68;;;;;15.50;102522.00;;;;5089587;28;20252;-76
2021/03/19 12:22:54;;;;;;;1.10;0.80;;;;;15.50;102523.00;;;;5088522;28;20198;-76
2021/03/19 12:25:23;;;;;;;1.98;0.95;;;;;15.50;102525.00;;;;5088707;28;20206;-76
2021/03/19 12:27:51;;;;;;;2.90;1.52;;;;;15.60;102511.00;;;;5085412;28;20215;-77
2021/03/19 12:30:19;;;;;;;1.67;0.57;;;;;15.60;102525.00;;;;5084448;28;20289;-75
2021/03/19 12:32:47;;;;;;;1.65;0.93;;;;;15.70;102515.00;;;;5073851;28;20206;-78
2021/03/19 12:35:14;;;;;;;1.63;0.75;;;;;15.70;102518.00;;;;5068637;28;20218;-77
2021/03/19 12:37:41;;;;;;;1.17;0.93;;;;;15.80;102514.00;;;;5068471;28;20715;-77
2021/03/19 12:40:10;;;;;;;1.00;0.77;;;;;15.80;102517.00;;;;5086232;28;20202;-77
2021/03/19 12:42:37;;;;;;;1.35;0.90;;;;;15.90;102520.00;;;;5072544;28;20210;-75
2021/03/19 12:45:07;;;;;;;1.08;0.90;;;;;15.90;102514.00;;;;5086332;28;20194;-75
2021/03/19 12:47:34;;;;;;;2.33;1.40;;;;;16.00;102513.00;;;;5088320;28;20688;-75